createdAt,value
2018-02-21T00:00:14.445Z,-1.1
2018-02-21T00:01:14.431Z,-1.16
2018-02-21T00:02:14.425Z,-1.27
2018-02-21T00:03:14.388Z,-1.23
2018-02-21T00:04:14.373Z,-1.09
2018-02-21T00:05:14.363Z,-1.22
2018-02-21T00:06:14.359Z,-1.16
2018-02-21T00:07:14.322Z,-1.17
2018-02-21T00:08:14.303Z,-1.25
2018-02-21T00:09:14.285Z,-1.22
2018-02-21T00:10:14.264Z,-1.22
2018-02-21T00:11:14.261Z,-1.35
2018-02-21T00:12:14.226Z,-1.34
2018-02-21T00:13:14.207Z,-1.22
2018-02-21T00:14:13.942Z,-1.23
2018-02-21T00:15:14.178Z,-1.23
2018-02-21T00:16:14.155Z,-1.27
2018-02-21T00:17:14.142Z,-1.25
2018-02-21T00:18:14.120Z,-1.35
2018-02-21T00:19:14.106Z,-1.23
2018-02-21T00:20:14.091Z,-1.2
2018-02-21T00:21:14.070Z,-1.33
2018-02-21T00:22:14.058Z,-1.27
2018-02-21T00:23:14.031Z,-1.35
2018-02-21T00:24:14.331Z,-1.19
2018-02-21T00:25:14.078Z,-1.28
2018-02-21T00:26:13.720Z,-1.35
2018-02-21T00:27:13.962Z,-1.25
2018-02-21T00:28:13.687Z,-1.3
2018-02-21T00:29:13.933Z,-1.27
2018-02-21T00:30:13.907Z,-1.27
2018-02-21T00:31:13.890Z,-1.35
2018-02-21T00:32:13.620Z,-1.37
2018-02-21T00:33:13.849Z,-1.23
2018-02-21T00:34:13.835Z,-1.23
2018-02-21T00:35:13.822Z,-1.23
2018-02-21T00:36:13.798Z,-1.3
2018-02-21T00:37:13.779Z,-1.27
2018-02-21T00:38:13.531Z,-1.37
2018-02-21T00:39:13.608Z,-1.37
2018-02-21T00:40:13.729Z,-1.19
2018-02-21T00:41:13.733Z,-1.27
2018-02-21T00:42:13.697Z,-1.27
2018-02-21T00:43:13.674Z,-1.34
2018-02-21T00:44:13.660Z,-1.27
2018-02-21T00:45:13.642Z,-1.25
2018-02-21T00:46:13.362Z,-1.34
2018-02-21T00:47:13.609Z,-1.22
2018-02-21T00:48:13.635Z,-1.37
2018-02-21T00:49:13.873Z,-1.37
2018-02-21T00:50:13.546Z,-1.38
2018-02-21T00:51:13.527Z,-1.35
2018-02-21T00:52:13.588Z,-1.34
2018-02-21T00:53:13.490Z,-1.35
2018-02-21T00:54:13.723Z,-1.34
2018-02-21T00:55:13.454Z,-1.35
2018-02-21T00:56:13.187Z,-1.33
2018-02-21T00:57:13.419Z,-1.35
2018-02-21T00:58:13.405Z,-1.37
2018-02-21T00:59:13.382Z,-1.37
2018-02-21T01:00:13.373Z,-1.37
2018-02-21T01:01:13.352Z,-1.33
2018-02-21T01:02:13.336Z,-1.34
2018-02-21T01:03:13.313Z,-1.3
2018-02-21T01:04:13.305Z,-1.4
2018-02-21T01:05:13.282Z,-1.31
2018-02-21T01:06:13.263Z,-1.34
2018-02-21T01:07:13.239Z,-1.34
2018-02-21T01:08:12.971Z,-1.37
2018-02-21T01:09:13.210Z,-1.35
2018-02-21T01:10:13.191Z,-1.4
2018-02-21T01:11:12.910Z,-1.34
2018-02-21T01:12:13.153Z,-1.35
2018-02-21T01:13:13.132Z,-1.28
2018-02-21T01:14:13.113Z,-1.3
2018-02-21T01:15:13.095Z,-1.34
2018-02-21T01:16:13.087Z,-1.28
2018-02-21T01:17:13.061Z,-1.37
2018-02-21T01:18:13.050Z,-1.35
2018-02-21T01:19:13.021Z,-1.31
2018-02-21T01:20:13.010Z,-1.38
2018-02-21T01:21:13.037Z,-1.34
2018-02-21T01:22:12.974Z,-1.37
2018-02-21T01:23:12.953Z,-1.34
2018-02-21T01:24:12.679Z,-1.35
2018-02-21T01:25:12.915Z,-1.35
2018-02-21T01:26:12.900Z,-1.31
2018-02-21T01:27:12.882Z,-1.35
2018-02-21T01:28:12.628Z,-1.37
2018-02-21T01:29:12.853Z,-1.33
2018-02-21T01:30:12.827Z,-1.38
2018-02-21T01:31:12.808Z,-1.37
2018-02-21T01:32:12.789Z,-1.37
2018-02-21T01:33:12.787Z,-1.41
2018-02-21T01:34:12.766Z,-1.43
2018-02-21T01:35:12.739Z,-1.37
2018-02-21T01:36:12.464Z,-1.41
2018-02-21T01:37:12.701Z,-1.41
2018-02-21T01:38:12.681Z,-1.46
2018-02-21T01:39:12.664Z,-1.52
2018-02-21T01:40:12.647Z,-1.43
2018-02-21T01:41:12.629Z,-1.35
2018-02-21T01:42:12.353Z,-1.52
2018-02-21T01:43:12.596Z,-1.48
2018-02-21T01:44:12.062Z,-1.4
2018-02-21T01:45:12.583Z,-1.48
2018-02-21T01:46:12.539Z,-1.45
2018-02-21T01:47:12.524Z,-1.51
2018-02-21T01:48:12.504Z,-1.52
2018-02-21T01:49:12.484Z,-1.46
2018-02-21T01:50:12.461Z,-1.56
2018-02-21T01:51:12.444Z,-1.49
2018-02-21T01:52:12.170Z,-1.4
2018-02-21T01:53:12.415Z,-1.41
2018-02-21T01:54:12.390Z,-1.49
2018-02-21T01:55:12.116Z,-1.4
2018-02-21T01:56:12.360Z,-1.46
2018-02-21T01:57:12.342Z,-1.54
2018-02-21T01:58:12.319Z,-1.51
2018-02-21T01:59:12.303Z,-1.51
2018-02-21T02:00:12.281Z,-1.51
2018-02-21T02:01:12.264Z,-1.45
2018-02-21T02:02:12.249Z,-1.54
2018-02-21T02:03:12.233Z,-1.48
2018-02-21T02:04:12.209Z,-1.48
2018-02-21T02:05:12.196Z,-1.46
2018-02-21T02:06:12.172Z,-1.51
2018-02-21T02:07:12.165Z,-1.46
2018-02-21T02:08:11.884Z,-1.54
2018-02-21T02:09:12.122Z,-1.48
2018-02-21T02:10:11.848Z,-1.59
2018-02-21T02:11:11.830Z,-1.58
2018-02-21T02:12:11.813Z,-1.48
2018-02-21T02:13:12.055Z,-1.52
2018-02-21T02:14:11.771Z,-1.54
2018-02-21T02:15:12.014Z,-1.58
2018-02-21T02:16:11.994Z,-1.56
2018-02-21T02:17:11.986Z,-1.51
2018-02-21T02:18:11.701Z,-1.51
2018-02-21T02:19:11.942Z,-1.54
2018-02-21T02:20:11.666Z,-1.59
2018-02-21T02:21:11.904Z,-1.54
2018-02-21T02:22:11.890Z,-1.54
2018-02-21T02:23:11.872Z,-1.54
2018-02-21T02:24:11.595Z,-1.48
2018-02-21T02:25:11.834Z,-1.58
2018-02-21T02:26:11.561Z,-1.56
2018-02-21T02:27:11.792Z,-1.58
2018-02-21T02:28:11.773Z,-1.48
2018-02-21T02:29:11.765Z,-1.46
2018-02-21T02:30:11.741Z,-1.55
2018-02-21T02:31:11.467Z,-1.54
2018-02-21T02:32:11.448Z,-1.62
2018-02-21T02:33:11.685Z,-1.52
2018-02-21T02:34:11.674Z,-1.64
2018-02-21T02:35:11.657Z,-1.61
2018-02-21T02:36:11.638Z,-1.58
2018-02-21T02:37:11.618Z,-1.58
2018-02-21T02:38:11.347Z,-1.59
2018-02-21T02:39:11.576Z,-1.56
2018-02-21T02:40:11.564Z,-1.61
2018-02-21T02:41:11.343Z,-1.61
2018-02-21T02:42:11.530Z,-1.62
2018-02-21T02:43:11.508Z,-1.64
2018-02-21T02:44:11.500Z,-1.62
2018-02-21T02:45:11.481Z,-1.61
2018-02-21T02:46:11.450Z,-1.61
2018-02-21T02:47:11.438Z,-1.64
2018-02-21T02:48:11.432Z,-1.64
2018-02-21T02:49:11.399Z,-1.66
2018-02-21T02:50:11.128Z,-1.66
2018-02-21T02:51:10.849Z,-1.62
2018-02-21T02:52:11.353Z,-1.59
2018-02-21T02:53:11.336Z,-1.64
2018-02-21T02:54:11.316Z,-1.61
2018-02-21T02:55:11.293Z,-1.61
2018-02-21T02:56:11.272Z,-1.64
2018-02-21T02:57:11.250Z,-1.55
2018-02-21T02:58:11.232Z,-1.59
2018-02-21T02:59:11.214Z,-1.66
2018-02-21T03:00:11.204Z,-1.67
2018-02-21T03:01:11.246Z,-1.66
2018-02-21T03:02:11.161Z,-1.62
2018-02-21T03:03:11.147Z,-1.58
2018-02-21T03:04:11.132Z,-1.69
2018-02-21T03:05:11.110Z,-1.62
2018-02-21T03:06:11.089Z,-1.66
2018-02-21T03:07:10.810Z,-1.64
2018-02-21T03:08:11.054Z,-1.7
2018-02-21T03:09:11.036Z,-1.61
2018-02-21T03:10:11.020Z,-1.72
2018-02-21T03:11:10.997Z,-1.67
2018-02-21T03:12:10.728Z,-1.64
2018-02-21T03:13:10.960Z,-1.64
2018-02-21T03:14:10.692Z,-1.7
2018-02-21T03:15:10.921Z,-1.66
2018-02-21T03:16:10.650Z,-1.7
2018-02-21T03:17:10.893Z,-1.69
2018-02-21T03:18:10.609Z,-1.7
2018-02-21T03:19:10.853Z,-1.7
2018-02-21T03:20:10.828Z,-1.67
2018-02-21T03:21:10.816Z,-1.64
2018-02-21T03:22:10.547Z,-1.66
2018-02-21T03:23:10.774Z,-1.73
2018-02-21T03:24:10.509Z,-1.66
2018-02-21T03:25:10.743Z,-1.7
2018-02-21T03:26:10.724Z,-1.62
2018-02-21T03:27:10.450Z,-1.7
2018-02-21T03:28:10.690Z,-1.72
2018-02-21T03:29:10.671Z,-1.73
2018-02-21T03:30:10.658Z,-1.72
2018-02-21T03:31:10.636Z,-1.7
2018-02-21T03:32:10.612Z,-1.59
2018-02-21T03:33:10.348Z,-1.69
2018-02-21T03:34:10.326Z,-1.72
2018-02-21T03:35:10.563Z,-1.76
2018-02-21T03:36:10.539Z,-1.7
2018-02-21T03:37:10.524Z,-1.76
2018-02-21T03:38:10.505Z,-1.7
2018-02-21T03:39:10.483Z,-1.72
2018-02-21T03:40:10.464Z,-1.73
2018-02-21T03:41:10.458Z,-1.72
2018-02-21T03:42:10.431Z,-1.74
2018-02-21T03:43:10.420Z,-1.7
2018-02-21T03:44:10.395Z,-1.79
2018-02-21T03:45:10.381Z,-1.73
2018-02-21T03:46:10.103Z,-1.79
2018-02-21T03:47:10.342Z,-1.76
2018-02-21T03:48:10.317Z,-1.74
2018-02-21T03:49:10.309Z,-1.77
2018-02-21T03:50:10.290Z,-1.73
2018-02-21T03:51:10.265Z,-1.73
2018-02-21T03:52:10.249Z,-1.79
2018-02-21T03:53:10.237Z,-1.77
2018-02-21T03:54:10.214Z,-1.76
2018-02-21T03:55:10.202Z,-1.85
2018-02-21T03:56:10.199Z,-1.82
2018-02-21T03:57:10.162Z,-1.82
2018-02-21T03:58:10.138Z,-1.79
2018-02-21T03:59:10.131Z,-1.84
2018-02-21T04:00:10.147Z,-1.77
2018-02-21T04:01:10.081Z,-1.84
2018-02-21T04:02:10.072Z,-1.77
2018-02-21T04:03:10.046Z,-1.79
2018-02-21T04:04:10.030Z,-1.84
2018-02-21T04:05:10.012Z,-1.84
2018-02-21T04:06:09.995Z,-1.9
2018-02-21T04:07:09.975Z,-1.88
2018-02-21T04:08:09.962Z,-1.87
2018-02-21T04:09:09.944Z,-1.88
2018-02-21T04:10:09.923Z,-1.85
2018-02-21T04:11:09.899Z,-1.87
2018-02-21T04:12:09.887Z,-1.85
2018-02-21T04:13:09.870Z,-1.8
2018-02-21T04:14:09.598Z,-1.9
2018-02-21T04:15:09.831Z,-1.88
2018-02-21T04:16:09.811Z,-1.92
2018-02-21T04:17:09.796Z,-1.88
2018-02-21T04:18:09.778Z,-1.8
2018-02-21T04:19:09.503Z,-1.8
2018-02-21T04:20:09.735Z,-1.82
2018-02-21T04:21:09.727Z,-1.85
2018-02-21T04:22:09.704Z,-1.85
2018-02-21T04:23:09.681Z,-1.84
2018-02-21T04:24:09.672Z,-1.9
2018-02-21T04:25:09.393Z,-1.92
2018-02-21T04:26:09.629Z,-1.95
2018-02-21T04:27:09.609Z,-1.88
2018-02-21T04:28:09.336Z,-1.92
2018-02-21T04:29:09.572Z,-2.02
2018-02-21T04:30:09.555Z,-1.98
2018-02-21T04:31:09.542Z,-2.02
2018-02-21T04:32:09.516Z,-2.05
2018-02-21T04:33:09.503Z,-1.95
2018-02-21T04:34:09.482Z,-2.06
2018-02-21T04:35:09.463Z,-2.09
2018-02-21T04:36:09.443Z,-2.08
2018-02-21T04:37:09.427Z,-2.12
2018-02-21T04:38:09.151Z,-2.02
2018-02-21T04:39:09.392Z,-2.06
2018-02-21T04:40:09.375Z,-2.05
2018-02-21T04:41:09.356Z,-2.08
2018-02-21T04:42:09.346Z,-2.09
2018-02-21T04:43:09.318Z,-2.02
2018-02-21T04:44:09.295Z,-2.12
2018-02-21T04:45:09.283Z,-2.03
2018-02-21T04:46:09.263Z,-2.08
2018-02-21T04:47:08.991Z,-2.05
2018-02-21T04:48:08.971Z,-2.1
2018-02-21T04:49:08.952Z,-2.09
2018-02-21T04:50:09.187Z,-2.1
2018-02-21T04:51:09.169Z,-2.02
2018-02-21T04:52:09.149Z,-2.08
2018-02-21T04:53:09.131Z,-2.05
2018-02-21T04:54:09.117Z,-2.08
2018-02-21T04:55:09.098Z,-2.03
2018-02-21T04:56:09.082Z,-2.08
2018-02-21T04:57:09.060Z,-2.15
2018-02-21T04:58:09.039Z,-2.08
2018-02-21T04:59:09.027Z,-2.1
2018-02-21T05:00:08.748Z,-2.09
2018-02-21T05:01:08.988Z,-2.09
2018-02-21T05:02:08.715Z,-2.08
2018-02-21T05:03:08.949Z,-2.08
2018-02-21T05:04:08.940Z,-2.08
2018-02-21T05:05:08.914Z,-2.09
2018-02-21T05:06:08.899Z,-2.05
2018-02-21T05:07:08.877Z,-2.06
2018-02-21T05:08:08.612Z,-2.06
2018-02-21T05:09:08.841Z,-2.1
2018-02-21T05:10:08.820Z,-2.02
2018-02-21T05:11:08.799Z,-2.05
2018-02-21T05:12:08.788Z,-2.09
2018-02-21T05:13:08.768Z,-2.05
2018-02-21T05:14:08.752Z,-2.05
2018-02-21T05:15:08.474Z,-1.97
2018-02-21T05:16:08.712Z,-2.06
2018-02-21T05:17:08.690Z,-2.02
2018-02-21T05:18:08.422Z,-2.08
2018-02-21T05:19:08.402Z,-2
2018-02-21T05:20:08.642Z,-2.06
2018-02-21T05:21:08.363Z,-2.08
2018-02-21T05:22:08.598Z,-2.03
2018-02-21T05:23:08.589Z,-2
2018-02-21T05:24:08.343Z,-2.03
2018-02-21T05:25:08.289Z,-1.98
2018-02-21T05:26:08.526Z,-2.09
2018-02-21T05:27:08.508Z,-1.97
2018-02-21T05:28:08.492Z,-2.05
2018-02-21T05:29:08.472Z,-1.98
2018-02-21T05:30:08.197Z,-2.06
2018-02-21T05:31:08.433Z,-2.05
2018-02-21T05:32:08.165Z,-1.98
2018-02-21T05:33:08.397Z,-2.03
2018-02-21T05:34:08.125Z,-2.08
2018-02-21T05:35:08.110Z,-2.09
2018-02-21T05:36:08.346Z,-2.06
2018-02-21T05:37:08.082Z,-2.09
2018-02-21T05:38:08.309Z,-2.06
2018-02-21T05:39:08.289Z,-1.94
2018-02-21T05:40:08.272Z,-2.06
2018-02-21T05:41:08.251Z,-2
2018-02-21T05:42:08.248Z,-2
2018-02-21T05:43:08.215Z,-2
2018-02-21T05:44:08.202Z,-2
2018-02-21T05:45:07.666Z,-2.03
2018-02-21T05:46:07.907Z,-2.05
2018-02-21T05:47:08.137Z,-2.05
2018-02-21T05:48:08.126Z,-2.06
2018-02-21T05:49:08.101Z,-2.05
2018-02-21T05:50:08.093Z,-1.98
2018-02-21T05:51:08.069Z,-1.97
2018-02-21T05:52:07.792Z,-2.06
2018-02-21T05:53:08.125Z,-2.02
2018-02-21T05:54:07.758Z,-2.08
2018-02-21T05:55:07.991Z,-2
2018-02-21T05:56:07.718Z,-2.02
2018-02-21T05:57:07.955Z,-1.97
2018-02-21T05:58:07.684Z,-1.92
2018-02-21T05:59:07.923Z,-1.94
2018-02-21T06:00:07.648Z,-1.95
2018-02-21T06:01:07.879Z,-2.02
2018-02-21T06:02:07.861Z,-1.91
2018-02-21T06:03:07.848Z,-2.02
2018-02-21T06:04:07.833Z,-1.98
2018-02-21T06:05:07.603Z,-2.03
2018-02-21T06:06:07.793Z,-2.06
2018-02-21T06:07:07.775Z,-2.03
2018-02-21T06:08:07.499Z,-1.88
2018-02-21T06:09:07.736Z,-1.95
2018-02-21T06:10:07.463Z,-1.88
2018-02-21T06:11:07.701Z,-1.88
2018-02-21T06:12:07.427Z,-1.92
2018-02-21T06:13:07.663Z,-1.87
2018-02-21T06:14:07.389Z,-1.82
2018-02-21T06:15:07.623Z,-1.82
2018-02-21T06:16:07.354Z,-1.84
2018-02-21T06:17:07.586Z,-1.84
2018-02-21T06:18:07.569Z,-1.88
2018-02-21T06:19:07.551Z,-1.8
2018-02-21T06:20:07.284Z,-1.87
2018-02-21T06:21:07.522Z,-1.79
2018-02-21T06:22:07.500Z,-1.79
2018-02-21T06:23:07.479Z,-1.77
2018-02-21T06:24:07.469Z,-1.72
2018-02-21T06:25:07.559Z,-1.84
2018-02-21T06:26:07.168Z,-1.82
2018-02-21T06:27:07.433Z,-1.8
2018-02-21T06:28:07.388Z,-1.79
2018-02-21T06:29:07.114Z,-1.72
2018-02-21T06:30:07.355Z,-1.66
2018-02-21T06:31:07.335Z,-1.76
2018-02-21T06:32:07.332Z,-1.74
2018-02-21T06:33:07.300Z,-1.64
2018-02-21T06:34:07.023Z,-1.61
2018-02-21T06:35:06.750Z,-1.66
2018-02-21T06:36:07.240Z,-1.62
2018-02-21T06:37:07.230Z,-1.58
2018-02-21T06:38:07.211Z,-1.58
2018-02-21T06:39:07.194Z,-1.56
2018-02-21T06:40:07.170Z,-1.54
2018-02-21T06:41:06.895Z,-1.54
2018-02-21T06:42:07.138Z,-1.45
2018-02-21T06:43:07.116Z,-1.41
2018-02-21T06:44:07.097Z,-1.4
2018-02-21T06:45:07.079Z,-1.2
2018-02-21T06:46:07.062Z,-1.27
2018-02-21T06:47:07.041Z,-1.13
2018-02-21T06:48:07.030Z,-1.17
2018-02-21T06:49:07.110Z,-0.97
2018-02-21T06:50:06.992Z,-0.97
2018-02-21T06:51:06.715Z,-0.97
2018-02-21T06:52:06.962Z,-0.86
2018-02-21T06:53:06.950Z,-0.82
2018-02-21T06:54:06.923Z,-0.75
2018-02-21T06:55:06.904Z,-0.64
2018-02-21T06:56:06.887Z,-0.57
2018-02-21T06:57:06.868Z,-0.54
2018-02-21T06:58:06.865Z,-0.43
2018-02-21T06:59:06.846Z,-0.43
2018-02-21T07:00:06.837Z,-0.26
2018-02-21T07:01:06.800Z,-0.19
2018-02-21T07:02:06.785Z,-0.05
2018-02-21T07:03:06.768Z,0.15
2018-02-21T07:04:06.750Z,0.23
2018-02-21T07:05:06.731Z,0.5
2018-02-21T07:06:06.715Z,0.65
2018-02-21T07:07:06.709Z,0.8
2018-02-21T07:08:06.688Z,0.96
2018-02-21T07:09:06.673Z,0.94
2018-02-21T07:10:06.695Z,0.96
2018-02-21T07:11:06.386Z,0.98
2018-02-21T07:12:06.628Z,0.97
2018-02-21T07:13:06.606Z,0.98
2018-02-21T07:14:06.348Z,0.97
2018-02-21T07:15:06.584Z,1.06
2018-02-21T07:16:06.562Z,1.18
2018-02-21T07:17:06.051Z,1.23
2018-02-21T07:18:06.586Z,1.26
2018-02-21T07:19:06.524Z,1.23
2018-02-21T07:20:06.249Z,1.41
2018-02-21T07:21:06.498Z,1.33
2018-02-21T07:22:06.229Z,1.26
2018-02-21T07:23:06.465Z,1.32
2018-02-21T07:24:06.444Z,1.27
2018-02-21T07:25:06.430Z,1.32
2018-02-21T07:26:05.907Z,1.34
2018-02-21T07:27:06.401Z,1.34
2018-02-21T07:28:06.390Z,1.3
2018-02-21T07:29:06.372Z,1.37
2018-02-21T07:30:06.359Z,1.34
2018-02-21T07:31:06.090Z,1.44
2018-02-21T07:32:06.337Z,1.42
2018-02-21T07:33:06.060Z,1.42
2018-02-21T07:34:06.319Z,1.42
2018-02-21T07:35:06.034Z,1.48
2018-02-21T07:36:06.283Z,1.5
2018-02-21T07:37:06.004Z,1.6
2018-02-21T07:38:06.278Z,1.59
2018-02-21T07:39:05.974Z,1.66
2018-02-21T07:40:06.243Z,1.73
2018-02-21T07:42:06.192Z,1.81
2018-02-21T07:43:06.176Z,1.84
2018-02-21T07:44:06.167Z,1.8
2018-02-21T07:45:06.156Z,1.86
2018-02-21T07:46:06.165Z,1.79
2018-02-21T07:47:06.122Z,1.84
2018-02-21T07:48:06.105Z,1.81
2018-02-21T07:49:05.894Z,1.8
2018-02-21T07:50:05.848Z,1.8
2018-02-21T07:51:06.224Z,1.76
2018-02-21T07:52:06.053Z,1.65
2018-02-21T07:53:06.040Z,1.51
2018-02-21T07:54:06.026Z,1.48
2018-02-21T07:55:06.011Z,1.33
2018-02-21T07:56:05.999Z,1.27
2018-02-21T07:57:05.471Z,1.34
2018-02-21T07:58:05.972Z,1.37
2018-02-21T07:59:05.959Z,1.32
2018-02-21T08:00:05.946Z,1.33
2018-02-21T08:01:05.727Z,1.34
2018-02-21T08:02:05.667Z,1.33
2018-02-21T08:03:06.005Z,1.34
2018-02-21T08:04:05.887Z,1.4
2018-02-21T08:05:05.966Z,1.44
2018-02-21T08:06:05.855Z,1.41
2018-02-21T08:07:05.846Z,1.36
2018-02-21T08:08:05.569Z,1.48
2018-02-21T08:09:05.564Z,1.41
2018-02-21T08:10:05.288Z,1.45
2018-02-21T08:11:05.788Z,1.54
2018-02-21T08:12:05.261Z,1.51
2018-02-21T08:13:05.499Z,1.65
2018-02-21T08:14:05.864Z,1.62
2018-02-21T08:15:05.478Z,1.59
2018-02-21T08:16:05.716Z,1.62
2018-02-21T08:17:05.443Z,1.7
2018-02-21T08:18:05.428Z,1.83
2018-02-21T08:19:05.664Z,1.69
2018-02-21T08:20:05.650Z,1.76
2018-02-21T08:21:05.381Z,1.76
2018-02-21T08:22:05.631Z,1.7
2018-02-21T08:23:05.615Z,1.73
2018-02-21T08:24:05.337Z,1.76
2018-02-21T08:25:05.067Z,1.77
2018-02-21T08:26:05.305Z,1.76
2018-02-21T08:27:05.551Z,1.66
2018-02-21T08:28:05.286Z,1.77
2018-02-21T08:29:05.268Z,1.7
2018-02-21T08:30:05.250Z,1.73
2018-02-21T08:31:05.228Z,1.66
2018-02-21T08:32:05.482Z,1.58
2018-02-21T08:33:05.466Z,1.6
2018-02-21T08:34:05.184Z,1.6
2018-02-21T08:35:05.437Z,1.63
2018-02-21T08:36:05.152Z,1.62
2018-02-21T08:37:05.138Z,1.51
2018-02-21T08:38:05.123Z,1.59
2018-02-21T08:39:05.365Z,1.54
2018-02-21T08:40:05.096Z,1.6
2018-02-21T08:41:05.084Z,1.69
2018-02-21T08:42:05.324Z,1.65
2018-02-21T08:43:05.315Z,1.6
2018-02-21T08:44:05.050Z,1.7
2018-02-21T08:45:05.276Z,1.72
2018-02-21T08:46:05.056Z,1.77
2018-02-21T08:47:05.266Z,1.77
2018-02-21T08:48:05.231Z,1.76
2018-02-21T08:49:05.218Z,1.87
2018-02-21T08:50:04.949Z,1.81
2018-02-21T08:51:05.203Z,1.93
2018-02-21T08:52:05.262Z,2
2018-02-21T08:53:05.162Z,1.9
2018-02-21T08:54:04.884Z,1.91
2018-02-21T08:55:04.878Z,1.83
2018-02-21T08:56:04.857Z,1.91
2018-02-21T08:57:05.092Z,1.88
2018-02-21T08:58:05.074Z,1.91
2018-02-21T08:59:05.074Z,1.93
2018-02-21T09:00:04.805Z,2.06
2018-02-21T09:01:05.036Z,2.05
2018-02-21T09:02:04.503Z,2.1
2018-02-21T09:03:04.743Z,2.12
2018-02-21T09:04:04.530Z,2.1
2018-02-21T09:05:04.970Z,2.21
2018-02-21T09:06:05.044Z,2.1
2018-02-21T09:07:04.949Z,2.14
2018-02-21T09:08:04.684Z,2.07
2018-02-21T09:09:04.913Z,2.09
2018-02-21T09:10:04.919Z,2.16
2018-02-21T09:11:04.895Z,2.1
2018-02-21T09:12:04.610Z,2.16
2018-02-21T09:13:04.610Z,2.16
2018-02-21T09:14:04.931Z,2.2
2018-02-21T09:15:04.822Z,2.21
2018-02-21T09:16:04.808Z,2.25
2018-02-21T09:17:04.533Z,2.24
2018-02-21T09:18:04.787Z,2.34
2018-02-21T09:19:04.515Z,2.39
2018-02-21T09:20:04.752Z,2.35
2018-02-21T09:21:04.494Z,2.43
2018-02-21T09:22:04.716Z,2.48
2018-02-21T09:23:04.442Z,2.52
2018-02-21T09:24:04.740Z,2.52
2018-02-21T09:25:04.422Z,2.54
2018-02-21T09:26:04.407Z,2.56
2018-02-21T09:27:04.660Z,2.46
2018-02-21T09:28:04.379Z,2.52
2018-02-21T09:29:04.641Z,2.57
2018-02-21T09:30:04.598Z,2.6
2018-02-21T09:31:04.580Z,2.69
2018-02-21T09:32:04.581Z,2.69
2018-02-21T09:33:04.558Z,2.67
2018-02-21T09:34:04.281Z,2.71
2018-02-21T09:35:04.520Z,2.82
2018-02-21T09:36:04.522Z,2.85
2018-02-21T09:37:04.635Z,2.85
2018-02-21T09:38:04.489Z,2.9
2018-02-21T09:39:04.462Z,2.9
2018-02-21T09:40:04.465Z,2.95
2018-02-21T09:41:04.178Z,3.1
2018-02-21T09:42:04.419Z,3.13
2018-02-21T09:43:03.891Z,3.23
2018-02-21T09:44:04.392Z,3.23
2018-02-21T09:45:04.374Z,3.23
2018-02-21T09:46:04.371Z,3.18
2018-02-21T09:47:04.356Z,3.32
2018-02-21T09:48:04.079Z,3.32
2018-02-21T09:49:04.315Z,3.39
2018-02-21T09:50:04.060Z,3.39
2018-02-21T09:51:04.539Z,3.47
2018-02-21T09:52:04.017Z,3.5
2018-02-21T09:53:04.258Z,3.48
2018-02-21T09:54:04.270Z,3.45
2018-02-21T09:55:04.235Z,3.51
2018-02-21T09:56:04.225Z,3.7
2018-02-21T09:57:03.947Z,3.65
2018-02-21T09:58:04.186Z,3.66
2018-02-21T09:59:03.922Z,3.78
2018-02-21T10:00:04.168Z,3.69
2018-02-21T10:01:04.200Z,3.8
2018-02-21T10:02:04.136Z,3.87
2018-02-21T10:03:04.129Z,3.88
2018-02-21T10:04:04.104Z,3.91
2018-02-21T10:05:04.091Z,3.93
2018-02-21T10:06:03.818Z,3.97
2018-02-21T10:07:04.059Z,4
2018-02-21T10:08:04.045Z,4.06
2018-02-21T10:09:04.033Z,4.14
2018-02-21T10:10:04.022Z,4.24
2018-02-21T10:11:03.751Z,4.32
2018-02-21T10:12:03.989Z,4.34
2018-02-21T10:13:03.981Z,4.45
2018-02-21T10:14:03.964Z,4.48
2018-02-21T10:15:03.957Z,4.5
2018-02-21T10:16:03.936Z,4.63
2018-02-21T10:17:03.925Z,4.69
2018-02-21T10:18:03.922Z,4.72
2018-02-21T10:19:03.642Z,4.69
2018-02-21T10:20:04.729Z,4.78
2018-02-21T10:21:03.898Z,4.86
2018-02-21T10:22:03.869Z,4.96
2018-02-21T10:23:03.847Z,4.97
2018-02-21T10:24:03.837Z,5.09
2018-02-21T10:25:03.318Z,5.17
2018-02-21T10:26:03.549Z,5.13
2018-02-21T10:27:03.799Z,5.21
2018-02-21T10:28:03.787Z,5.15
2018-02-21T10:29:03.769Z,5.07
2018-02-21T10:30:03.494Z,5.15
2018-02-21T10:31:03.484Z,5.17
2018-02-21T10:32:03.471Z,5.22
2018-02-21T10:33:03.724Z,5.35
2018-02-21T10:34:03.714Z,5.54
2018-02-21T10:35:03.436Z,5.61
2018-02-21T10:36:03.670Z,5.71
2018-02-21T10:37:03.401Z,5.76
2018-02-21T10:38:03.645Z,5.81
2018-02-21T10:39:03.377Z,5.97
2018-02-21T10:40:03.620Z,6.04
2018-02-21T10:41:03.613Z,6.08
2018-02-21T10:42:03.617Z,6.09
2018-02-21T10:43:03.587Z,6.08
2018-02-21T10:44:03.575Z,6.03
2018-02-21T10:45:03.581Z,6.11
2018-02-21T10:46:03.544Z,6.14
2018-02-21T10:47:03.556Z,6.19
2018-02-21T10:48:03.518Z,6.17
2018-02-21T10:49:03.537Z,6.3
2018-02-21T10:50:03.513Z,6.18
2018-02-21T10:51:02.972Z,6.36
2018-02-21T10:52:03.525Z,6.36
2018-02-21T10:53:03.266Z,6.4
2018-02-21T10:54:03.299Z,6.38
2018-02-21T10:55:03.455Z,6.33
2018-02-21T10:56:02.923Z,6.34
2018-02-21T10:57:03.165Z,6.27
2018-02-21T10:58:02.891Z,6.25
2018-02-21T10:59:03.392Z,6.19
2018-02-21T11:00:03.129Z,6.27
2018-02-21T11:01:03.106Z,6.3
2018-02-21T11:02:02.839Z,6.21
2018-02-21T11:03:02.830Z,6.22
2018-02-21T11:04:03.328Z,6.33
2018-02-21T11:05:03.325Z,6.4
2018-02-21T11:06:03.311Z,6.55
2018-02-21T11:07:03.055Z,6.59
2018-02-21T11:08:03.315Z,6.74
2018-02-21T11:09:03.336Z,6.87
2018-02-21T11:10:03.002Z,6.85
2018-02-21T11:11:03.313Z,7.05
2018-02-21T11:12:03.241Z,7.12
2018-02-21T11:13:02.963Z,7.21
2018-02-21T11:14:02.954Z,7.2
2018-02-21T11:15:02.941Z,7.2
2018-02-21T11:16:02.935Z,7.13
2018-02-21T11:17:03.175Z,7.06
2018-02-21T11:18:03.278Z,7.1
2018-02-21T11:19:03.181Z,6.95
2018-02-21T11:20:02.889Z,7.02
2018-02-21T11:21:02.617Z,7.05
2018-02-21T11:22:03.117Z,7.09
2018-02-21T11:23:02.852Z,7.09
2018-02-21T11:24:03.560Z,7.1
2018-02-21T11:25:03.085Z,7.07
2018-02-21T11:26:02.849Z,7.12
2018-02-21T11:27:03.083Z,7.17
2018-02-21T11:28:02.818Z,7.09
2018-02-21T11:29:03.042Z,6.99
2018-02-21T11:30:02.774Z,6.88
2018-02-21T11:31:03.020Z,6.79
2018-02-21T11:32:03.008Z,6.67
2018-02-21T11:33:03.004Z,6.58
2018-02-21T11:34:02.726Z,6.58
2018-02-21T11:35:02.967Z,6.38
2018-02-21T11:36:02.708Z,6.27
2018-02-21T11:37:02.980Z,6.25
2018-02-21T11:38:02.733Z,6.11
2018-02-21T11:39:02.673Z,6.12
2018-02-21T11:40:02.661Z,5.86
2018-02-21T11:41:02.911Z,5.85
2018-02-21T11:42:02.640Z,5.74
2018-02-21T11:43:02.882Z,5.64
2018-02-21T11:44:02.359Z,5.56
2018-02-21T11:45:02.861Z,5.58
2018-02-21T11:46:02.598Z,5.46
2018-02-21T11:47:02.831Z,5.53
2018-02-21T11:48:02.827Z,5.39
2018-02-21T11:49:02.809Z,5.28
2018-02-21T11:50:02.542Z,5.22
2018-02-21T11:51:02.785Z,5.25
2018-02-21T11:52:02.521Z,5.28
2018-02-21T11:53:02.509Z,5.22
2018-02-21T11:54:02.743Z,5.25
2018-02-21T11:55:02.742Z,5.17
2018-02-21T11:56:02.468Z,5.17
2018-02-21T11:57:02.711Z,5.3
2018-02-21T11:58:02.718Z,5.24
2018-02-21T11:59:02.694Z,5.25
2018-02-21T12:00:02.675Z,5.43
2018-02-21T12:01:02.665Z,5.48
2018-02-21T12:02:02.396Z,5.56
2018-02-21T12:03:02.393Z,5.56
2018-02-21T12:04:02.371Z,5.57
2018-02-21T12:05:02.625Z,5.58
2018-02-21T12:06:02.603Z,5.6
2018-02-21T12:07:02.337Z,5.58
2018-02-21T12:08:02.317Z,5.6
2018-02-21T12:09:02.569Z,5.54
2018-02-21T12:10:02.551Z,5.43
2018-02-21T12:11:02.536Z,5.53
2018-02-21T12:12:02.532Z,5.45
2018-02-21T12:13:02.531Z,5.42
2018-02-21T12:14:02.503Z,5.49
2018-02-21T12:15:02.488Z,5.57
2018-02-21T12:16:02.549Z,5.6
2018-02-21T12:17:02.493Z,5.63
2018-02-21T12:18:02.467Z,5.58
2018-02-21T12:19:02.443Z,5.56
2018-02-21T12:20:02.168Z,5.58
2018-02-21T12:21:02.158Z,5.58
2018-02-21T12:22:02.152Z,5.72
2018-02-21T12:23:02.391Z,5.86
2018-02-21T12:24:02.381Z,5.96
2018-02-21T12:25:02.106Z,6.09
2018-02-21T12:26:02.356Z,6.28
2018-02-21T12:27:02.350Z,6.46
2018-02-21T12:28:02.327Z,6.56
2018-02-21T12:29:02.325Z,6.64
2018-02-21T12:30:02.082Z,6.79
2018-02-21T12:31:02.334Z,6.8
2018-02-21T12:32:02.329Z,6.88
2018-02-21T12:33:02.306Z,6.95
2018-02-21T12:34:02.014Z,6.94
2018-02-21T12:35:02.358Z,6.98
2018-02-21T12:36:02.268Z,6.98
2018-02-21T12:37:02.009Z,7.12
2018-02-21T12:38:02.234Z,7.03
2018-02-21T12:39:02.259Z,7.17
2018-02-21T12:40:02.223Z,7.17
2018-02-21T12:41:01.933Z,7.23
2018-02-21T12:42:02.194Z,7.23
2018-02-21T12:43:02.208Z,7.27
2018-02-21T12:44:02.177Z,7.3
2018-02-21T12:45:02.161Z,7.39
2018-02-21T12:46:01.900Z,7.43
2018-02-21T12:47:02.153Z,7.4
2018-02-21T12:48:01.861Z,7.43
2018-02-21T12:49:02.131Z,7.39
2018-02-21T12:50:02.098Z,7.27
2018-02-21T12:51:01.841Z,7.21
2018-02-21T12:52:02.074Z,7.09
2018-02-21T12:53:02.101Z,6.98
2018-02-21T12:54:01.795Z,6.81
2018-02-21T12:55:02.083Z,6.87
2018-02-21T12:56:02.030Z,6.8
2018-02-21T12:57:02.016Z,6.76
2018-02-21T12:58:01.758Z,6.73
2018-02-21T12:59:02.029Z,6.76
2018-02-21T13:00:02.001Z,6.71
2018-02-21T13:01:01.978Z,6.77
2018-02-21T13:02:01.965Z,6.8
2018-02-21T13:03:01.949Z,6.87
2018-02-21T13:04:01.961Z,6.81
2018-02-21T13:05:01.923Z,6.88
2018-02-21T13:06:02.217Z,6.84
2018-02-21T13:07:01.912Z,6.81
2018-02-21T13:08:01.916Z,6.87
2018-02-21T13:09:01.610Z,6.71